Time;durP1;ratioP1;P1;durP2;ratioP2;P2;SDS_P1;SDS_P2;PMS_P1;PMS_P2;Temp;Humidity;BMP_temperature;BMP_pressure;BME280_temperature;BME280_humidity;BME280_pressure;Samples;Min_cycle;Max_cycle;Signal;HPM_P1;HPM_P2
2021/04/19 00:00:28;;;;;;;87.70;34.65;;;;;;;6.70;66.91;98674.91;5052934;28;20020;-75
2021/04/19 00:02:53;;;;;;;85.80;36.40;;;;;;;6.72;67.06;98671.06;5052763;28;20044;-75
2021/04/19 00:05:20;;;;;;;75.78;32.72;;;;;;;6.73;67.17;98670.00;5053003;28;20096;-75
2021/04/19 00:07:45;;;;;;;84.30;36.15;;;;;;;6.74;67.08;98671.63;5051468;28;20123;-75
2021/04/19 00:10:17;;;;;;;77.50;34.58;;;;;;;6.74;67.58;98668.91;5051737;28;20132;-75
2021/04/19 00:12:43;;;;;;;74.35;32.70;;;;;;;6.75;67.20;98662.38;5053040;28;20025;-75
2021/04/19 00:15:10;;;;;;;77.97;34.42;;;;;;;6.76;67.30;98664.81;5052816;28;20110;-75
2021/04/19 00:17:36;;;;;;;70.30;31.52;;;;;;;6.77;67.39;98658.28;5052610;28;20096;-75
2021/04/19 00:20:03;;;;;;;71.38;33.25;;;;;;;6.80;67.70;98662.41;5052657;28;20558;-75
2021/04/19 00:22:28;;;;;;;70.85;31.65;;;;;;;6.84;67.26;98663.50;5052359;28;20029;-75
2021/04/19 00:24:53;;;;;;;67.25;31.75;;;;;;;6.81;67.37;98664.03;5052512;28;20023;-75
2021/04/19 00:27:19;;;;;;;63.67;31.65;;;;;;;6.80;67.24;98657.75;5051533;28;20492;-75
2021/04/19 00:29:44;;;;;;;69.30;33.05;;;;;;;6.80;67.36;98660.47;5052697;28;20021;-75
2021/04/19 00:32:09;;;;;;;66.95;35.25;;;;;;;6.82;67.62;98650.13;5054356;28;20064;-75
2021/04/19 00:34:35;;;;;;;69.15;35.03;;;;;;;6.85;67.63;98651.53;5052438;28;20042;-76
2021/04/19 00:37:01;;;;;;;71.13;33.92;;;;;;;6.83;67.60;98657.22;5051858;28;20104;-75
2021/04/19 00:39:26;;;;;;;68.32;32.97;;;;;;;6.83;67.67;98646.31;5052327;28;20025;-75
2021/04/19 00:41:51;;;;;;;72.13;34.90;;;;;;;6.78;67.08;98649.03;5052324;28;20049;-75
2021/04/19 00:44:18;;;;;;;74.93;34.47;;;;;;;6.77;67.61;98649.31;5052324;28;20021;-76
2021/04/19 00:46:45;;;;;;;73.80;33.33;;;;;;;6.73;67.37;98648.19;5052418;28;20078;-75
2021/04/19 00:49:10;;;;;;;72.28;33.55;;;;;;;6.69;67.20;98651.44;5052097;28;20056;-75
2021/04/19 00:51:37;;;;;;;74.38;34.63;;;;;;;6.67;67.62;98655.53;5052829;28;20485;-75
2021/04/19 00:54:02;;;;;;;77.60;36.30;;;;;;;6.63;67.32;98648.97;5055491;28;20377;-74
2021/04/19 00:56:28;;;;;;;73.97;35.85;;;;;;;6.60;67.23;98652.22;5051687;28;20040;-74
2021/04/19 00:58:53;;;;;;;77.85;35.15;;;;;;;6.55;67.28;98648.38;5056827;28;20116;-75
2021/04/19 01:01:18;;;;;;;82.53;35.70;;;;;;;6.53;67.88;98655.16;5056246;28;20116;-75
2021/04/19 01:03:44;;;;;;;75.13;35.50;;;;;;;6.49;67.61;98651.38;5054233;28;20040;-75
2021/04/19 01:06:10;;;;;;;73.80;34.25;;;;;;;6.49;67.70;98649.44;5054290;28;20025;-75
2021/04/19 01:08:36;;;;;;;76.45;34.45;;;;;;;6.49;67.93;98645.91;5052207;28;20050;-74
2021/04/19 01:11:02;;;;;;;67.80;31.20;;;;;;;6.51;67.85;98651.91;5054214;28;20093;-76
2021/04/19 01:13:28;;;;;;;65.97;31.52;;;;;;;6.53;68.19;98658.72;5053898;28;20060;-75
2021/04/19 01:15:53;;;;;;;64.85;30.88;;;;;;;6.53;67.96;98649.72;5052791;28;20464;-76
2021/04/19 01:18:19;;;;;;;65.88;29.90;;;;;;;6.53;67.74;98650.56;5055426;28;20017;-75
2021/04/19 01:20:48;;;;;;;66.85;31.48;;;;;;;6.55;68.38;98653.84;5054265;28;20036;-76
2021/04/19 01:23:16;;;;;;;67.45;31.70;;;;;;;6.56;67.92;98646.47;5068138;28;20024;-75
2021/04/19 01:25:41;;;;;;;71.75;33.08;;;;;;;6.54;67.95;98646.75;5073472;28;20025;-75
2021/04/19 01:28:07;;;;;;;68.00;33.15;;;;;;;6.51;68.17;98646.47;5056204;28;20036;-75
2021/04/19 01:30:41;;;;;;;72.00;31.85;;;;;;;6.50;67.74;98656.53;5067635;28;20029;-75
2021/04/19 01:33:07;;;;;;;65.55;31.88;;;;;;;6.46;68.03;98641.00;5060643;28;20393;-75
2021/04/19 01:35:34;;;;;;;68.82;32.83;;;;;;;6.45;68.38;98650.25;5062781;28;20043;-75
2021/04/19 01:38:00;;;;;;;68.10;32.58;;;;;;;6.44;68.10;98646.69;5073868;28;20021;-75
2021/04/19 01:40:27;;;;;;;64.88;30.85;;;;;;;6.46;68.60;98641.00;5073798;28;20473;-75
2021/04/19 01:42:54;;;;;;;65.75;30.88;;;;;;;6.45;68.14;98642.06;5067823;28;20024;-75
2021/04/19 01:45:19;;;;;;;68.97;32.80;;;;;;;6.45;68.27;98639.34;5073669;28;20469;-75
2021/04/19 01:47:45;;;;;;;68.28;30.25;;;;;;;6.44;68.10;98635.78;5070812;28;20059;-75
2021/04/19 01:50:12;;;;;;;65.65;30.85;;;;;;;6.45;68.36;98640.16;5072353;28;20366;-75
2021/04/19 01:52:38;;;;;;;67.85;32.80;;;;;;;6.42;68.41;98637.97;5068951;28;20427;-75
2021/04/19 01:55:19;;;;;;;64.35;31.35;;;;;;;6.42;68.59;98646.13;5054083;28;20094;-75
2021/04/19 01:57:52;;;;;;;66.32;32.30;;;;;;;6.43;68.68;98636.06;5053359;28;20037;-75
2021/04/19 02:00:21;;;;;;;67.35;32.65;;;;;;;6.44;68.38;98646.69;5053250;28;20037;-75
2021/04/19 02:02:46;;;;;;;65.93;31.75;;;;;;;6.46;68.37;98647.25;5052674;28;20339;-75
2021/04/19 02:05:23;;;;;;;73.78;32.08;;;;;;;6.46;68.24;98655.41;5051564;28;20043;-75
2021/04/19 02:08:02;;;;;;;68.65;32.28;;;;;;;6.49;68.58;98654.09;5033518;28;20124;-75
2021/04/19 02:10:27;;;;;;;67.90;32.20;;;;;;;6.51;68.34;98647.28;5034435;28;20025;-75
2021/04/19 02:12:52;;;;;;;63.47;31.48;;;;;;;6.50;67.98;98642.91;5053362;28;20029;-75
2021/04/19 02:15:25;;;;;;;64.30;30.83;;;;;;;6.51;68.29;98643.75;5052970;28;20448;-75
2021/04/19 02:18:16;;;;;;;63.88;31.17;;;;;;;6.50;68.40;98640.19;5053237;28;20025;-75
2021/04/19 02:21:04;;;;;;;64.85;31.45;;;;;;;6.51;68.48;98635.56;5052403;28;20033;-75
2021/04/19 02:23:37;;;;;;;64.72;29.73;;;;;;;6.51;68.37;98641.03;5052429;28;20043;-75
2021/04/19 02:26:15;;;;;;;67.22;31.63;;;;;;;6.50;68.57;98640.19;5032092;28;20025;-75
2021/04/19 02:28:45;;;;;;;64.50;30.73;;;;;;;6.49;68.84;98637.75;5051854;28;20040;-75
2021/04/19 02:31:14;;;;;;;66.95;30.80;;;;;;;6.48;68.72;98639.63;5058455;28;20094;-75
2021/04/19 02:33:42;;;;;;;62.75;29.52;;;;;;;6.49;68.63;98643.19;5071208;28;20516;-75
2021/04/19 02:36:10;;;;;;;63.80;29.83;;;;;;;6.47;68.50;98635.25;5072780;28;20020;-74
2021/04/19 02:38:39;;;;;;;60.60;29.92;;;;;;;6.46;68.97;98635.53;5052316;28;20048;-75
2021/04/19 02:41:08;;;;;;;57.75;28.13;;;;;;;6.46;68.44;98621.91;5052541;28;20044;-74
2021/04/19 02:43:36;;;;;;;59.17;28.73;;;;;;;6.45;68.77;98626.53;5068827;28;20033;-75
2021/04/19 02:46:04;;;;;;;60.40;27.63;;;;;;;6.47;68.70;98627.09;5072280;28;20063;-74
2021/04/19 02:48:31;;;;;;;60.95;28.15;;;;;;;6.50;69.16;98620.31;5056249;28;20033;-75
2021/04/19 02:50:58;;;;;;;58.45;27.92;;;;;;;6.48;68.69;98620.56;5052359;28;20435;-75
2021/04/19 02:53:24;;;;;;;59.80;27.13;;;;;;;6.50;69.02;98621.13;5052025;28;20116;-74
2021/04/19 02:55:50;;;;;;;57.13;27.23;;;;;;;6.53;69.17;98622.47;5052281;28;20032;-75
2021/04/19 02:58:25;;;;;;;56.60;27.90;;;;;;;6.53;68.65;98617.84;5069226;28;20060;-73
2021/04/19 03:00:50;;;;;;;61.15;28.20;;;;;;;6.55;69.24;98621.13;5053171;28;20075;-75
2021/04/19 03:03:24;;;;;;;62.03;29.45;;;;;;;6.55;68.97;98626.59;5052574;28;20029;-74
2021/04/19 03:05:51;;;;;;;59.35;28.45;;;;;;;6.55;69.25;98615.69;5052528;28;20087;-75
2021/04/19 03:08:20;;;;;;;68.15;30.15;;;;;;;6.53;69.11;98619.75;5051988;28;20025;-74
2021/04/19 03:11:06;;;;;;;58.35;28.80;;;;;;;6.50;68.93;98617.59;5052468;28;20025;-74
2021/04/19 03:13:35;;;;;;;58.63;28.30;;;;;;;6.51;69.18;98616.50;5064494;28;20055;-75
2021/04/19 03:16:03;;;;;;;58.75;28.23;;;;;;;6.54;69.56;98618.66;5052101;28;20114;-75
2021/04/19 03:18:34;;;;;;;59.45;27.83;;;;;;;6.57;69.54;98623.59;5052236;28;20052;-75
2021/04/19 03:21:21;;;;;;;56.28;27.05;;;;;;;6.59;69.49;98618.69;5055196;28;20039;-75
2021/04/19 03:23:50;;;;;;;58.30;29.02;;;;;;;6.62;69.07;98620.88;5050635;28;20108;-75
2021/04/19 03:26:17;;;;;;;60.87;28.83;;;;;;;6.61;68.98;98621.16;5061089;28;20039;-75
2021/04/19 03:28:45;;;;;;;66.85;31.85;;;;;;;6.60;69.21;98619.53;5068140;28;20318;-75
2021/04/19 03:31:18;;;;;;;63.22;31.20;;;;;;;6.58;69.20;98613.53;5074220;28;20542;-75
2021/04/19 03:33:46;;;;;;;59.95;29.73;;;;;;;6.55;69.17;98614.84;5076413;28;20056;-75
2021/04/19 03:36:14;;;;;;;62.05;29.30;;;;;;;6.55;69.29;98615.69;5069202;28;20044;-75
2021/04/19 03:38:41;;;;;;;57.13;27.48;;;;;;;6.53;69.17;98609.69;5076281;28;20116;-75
2021/04/19 03:41:08;;;;;;;56.75;28.08;;;;;;;6.52;69.21;98613.50;5059412;28;20025;-74
2021/04/19 03:43:35;;;;;;;62.70;30.30;;;;;;;6.50;69.58;98607.50;5056512;28;20376;-74
2021/04/19 03:46:05;;;;;;;71.25;34.13;;;;;;;6.45;69.17;98609.38;5055756;28;20427;-75
2021/04/19 03:48:34;;;;;;;76.47;33.92;;;;;;;6.38;69.41;98601.44;5055842;28;20028;-75
2021/04/19 03:51:05;;;;;;;79.72;35.75;;;;;;;6.38;69.39;98606.88;5059677;28;20025;-75
2021/04/19 03:53:32;;;;;;;74.07;35.30;;;;;;;6.35;69.50;98600.06;5056162;28;20025;-75
2021/04/19 03:55:59;;;;;;;75.38;34.63;;;;;;;6.36;69.18;98595.41;5067600;28;20074;-75
2021/04/19 03:58:28;;;;;;;71.97;32.20;;;;;;;6.36;69.65;98595.41;5072491;28;20458;-74
2021/04/19 04:00:55;;;;;;;65.05;31.00;;;;;;;6.34;69.44;98592.13;5061015;28;20122;-75
2021/04/19 04:03:21;;;;;;;64.82;31.38;;;;;;;6.35;69.74;98600.06;5075591;28;20052;-75
2021/04/19 04:05:48;;;;;;;62.53;31.15;;;;;;;6.37;70.10;98597.06;5072104;28;20064;-74
2021/04/19 04:08:15;;;;;;;62.17;27.67;;;;;;;6.38;70.10;98594.09;5066761;28;20076;-74
2021/04/19 04:10:41;;;;;;;58.88;27.50;;;;;;;6.39;70.07;98595.72;5056357;28;20044;-75
2021/04/19 04:13:07;;;;;;;59.88;28.08;;;;;;;6.37;69.92;98591.63;5055200;28;20025;-74
2021/04/19 04:15:32;;;;;;;63.45;27.45;;;;;;;6.33;70.13;98588.63;5054790;28;20503;-74
2021/04/19 04:17:57;;;;;;;66.57;27.67;;;;;;;6.33;69.85;98591.34;5053398;28;20032;-75
2021/04/19 04:20:23;;;;;;;129.07;42.10;;;;;;;6.28;69.63;98591.31;5056245;28;20431;-75
2021/04/19 04:22:48;;;;;;;178.18;56.40;;;;;;;6.22;70.08;98597.81;5055098;28;20025;-75
2021/04/19 04:25:15;;;;;;;177.45;58.40;;;;;;;6.18;69.66;98594.81;5061005;28;20036;-74
2021/04/19 04:27:41;;;;;;;170.57;59.38;;;;;;;6.20;70.49;98584.47;5054554;28;20548;-75
2021/04/19 04:30:07;;;;;;;123.78;46.92;;;;;;;6.26;70.26;98598.91;5054906;28;20057;-74
2021/04/19 04:32:32;;;;;;;83.40;34.88;;;;;;;6.31;70.53;98598.94;5064985;28;20108;-75
2021/04/19 04:34:58;;;;;;;61.03;27.77;;;;;;;6.38;70.49;98590.53;5058399;28;20071;-75
2021/04/19 04:37:23;;;;;;;61.83;28.30;;;;;;;6.40;70.63;98583.75;5054772;28;20032;-74
2021/04/19 04:39:48;;;;;;;66.72;29.85;;;;;;;6.43;70.56;98587.84;5066243;28;20024;-74
2021/04/19 04:42:17;;;;;;;93.22;36.10;;;;;;;6.43;70.69;98585.09;5052447;28;20029;-74
2021/04/19 04:44:46;;;;;;;90.00;39.95;;;;;;;6.42;70.66;98597.09;5067450;28;20046;-74
2021/04/19 04:47:28;;;;;;;74.05;35.50;;;;;;;6.46;70.50;98592.75;5060569;28;20032;-74
2021/04/19 04:50:22;;;;;;;97.65;44.78;;;;;;;6.47;70.21;98588.94;5058188;28;20092;-75
2021/04/19 04:53:12;;;;;;;74.15;34.08;;;;;;;6.43;70.50;98587.03;5051428;28;20056;-73
2021/04/19 04:55:39;;;;;;;59.33;26.65;;;;;;;6.36;70.83;98579.06;5054925;28;20039;-72
2021/04/19 04:58:06;;;;;;;51.47;24.13;;;;;;;6.31;71.01;98576.34;5054648;28;20052;-74
2021/04/19 05:00:32;;;;;;;58.47;27.15;;;;;;;6.25;71.36;98578.22;5061604;28;20535;-76
2021/04/19 05:02:58;;;;;;;67.20;30.45;;;;;;;6.23;71.50;98573.03;5059019;28;20029;-73
2021/04/19 05:05:24;;;;;;;60.17;28.60;;;;;;;6.21;71.59;98577.94;5053959;28;20416;-74
2021/04/19 05:07:50;;;;;;;50.47;25.58;;;;;;;6.27;71.44;98586.13;5063026;28;20051;-74
2021/04/19 05:10:16;;;;;;;69.47;31.30;;;;;;;6.32;71.83;98580.69;5052848;28;20028;-74
2021/04/19 05:12:41;;;;;;;70.47;35.08;;;;;;;6.41;71.54;98587.28;5054698;28;20029;-74
2021/04/19 05:15:12;;;;;;;136.55;53.00;;;;;;;6.50;72.07;98585.69;5052954;28;20485;-74
2021/04/19 05:17:38;;;;;;;93.72;31.25;;;;;;;6.58;72.07;98600.69;5054692;28;20365;-74
2021/04/19 05:20:05;;;;;;;75.60;28.50;;;;;;;6.61;71.60;98594.72;5062246;28;20029;-73
2021/04/19 05:22:31;;;;;;;72.05;29.83;;;;;;;6.65;71.50;98593.09;5064249;28;20103;-73
2021/04/19 05:24:56;;;;;;;51.60;25.65;;;;;;;6.66;71.34;98599.38;5054032;28;20104;-73
2021/04/19 05:27:21;;;;;;;52.35;26.48;;;;;;;6.67;71.85;98590.13;5054482;28;20040;-74
2021/04/19 05:29:47;;;;;;;66.47;32.38;;;;;;;6.69;71.71;98593.41;5055711;28;20458;-74
2021/04/19 05:32:18;;;;;;;75.40;33.00;;;;;;;6.74;71.83;98590.66;5025482;28;20030;-74
2021/04/19 05:34:43;;;;;;;72.72;32.50;;;;;;;6.78;71.49;98594.50;5038224;28;20025;-74
2021/04/19 05:37:10;;;;;;;77.40;33.63;;;;;;;6.79;71.75;98587.16;5028607;28;20394;-74
2021/04/19 05:39:36;;;;;;;88.32;35.63;;;;;;;6.82;71.35;98590.16;5039321;28;20057;-74
2021/04/19 05:42:02;;;;;;;81.65;33.72;;;;;;;6.81;71.63;98574.88;5025462;28;20472;-75
2021/04/19 05:44:27;;;;;;;80.10;34.85;;;;;;;6.86;71.32;98587.72;5026184;28;20033;-74
2021/04/19 05:46:54;;;;;;;93.45;36.80;;;;;;;6.88;71.44;98579.25;5044065;28;20427;-74
2021/04/19 05:49:19;;;;;;;70.63;33.28;;;;;;;6.84;71.32;98579.81;5031881;28;20039;-73
2021/04/19 05:51:46;;;;;;;70.13;33.53;;;;;;;6.81;71.49;98583.06;5023833;28;20029;-74
2021/04/19 05:54:15;;;;;;;65.00;33.55;;;;;;;6.78;71.23;98586.31;5015820;28;20033;-73
2021/04/19 05:57:02;;;;;;;64.47;32.25;;;;;;;6.77;71.31;98581.97;5035320;28;20029;-72
2021/04/19 05:59:41;;;;;;;67.82;32.55;;;;;;;6.78;71.40;98577.34;5034954;28;20083;-72
2021/04/19 06:02:09;;;;;;;68.50;31.60;;;;;;;6.77;71.67;98575.69;5025869;28;20065;-73
2021/04/19 06:04:56;;;;;;;69.47;31.02;;;;;;;6.74;71.69;98579.75;5027045;28;20063;-73
2021/04/19 06:07:47;;;;;;;59.30;27.90;;;;;;;6.73;71.92;98583.56;5030033;28;20033;-73
2021/04/19 06:10:23;;;;;;;56.00;27.38;;;;;;;6.70;72.16;98589.59;5045554;28;20036;-73
2021/04/19 06:12:50;;;;;;;59.90;30.85;;;;;;;6.69;71.91;98586.03;5054484;28;21518;-72
2021/04/19 06:15:17;;;;;;;63.33;30.65;;;;;;;6.72;72.21;98587.41;5054544;28;20050;-73
2021/04/19 06:17:45;;;;;;;72.15;36.92;;;;;;;6.67;72.08;98592.84;5052223;28;20021;-73
2021/04/19 06:20:14;;;;;;;64.63;31.25;;;;;;;6.63;72.39;98589.00;5052511;28;20027;-73
2021/04/19 06:22:39;;;;;;;61.10;30.10;;;;;;;6.66;72.59;98589.28;5052259;28;20021;-73
2021/04/19 06:25:05;;;;;;;63.97;32.40;;;;;;;6.67;72.42;98596.38;5050173;28;20516;-74
2021/04/19 06:27:30;;;;;;;58.88;28.88;;;;;;;6.68;72.44;98586.31;5050561;28;20116;-74
2021/04/19 06:29:56;;;;;;;58.80;28.30;;;;;;;6.74;72.40;98595.31;5050916;28;20495;-74
2021/04/19 06:32:22;;;;;;;61.58;28.08;;;;;;;6.76;72.36;98593.94;5051478;28;20025;-74
2021/04/19 06:34:51;;;;;;;64.38;28.30;;;;;;;6.81;72.56;98590.44;5051475;28;20029;-75
2021/04/19 06:37:18;;;;;;;64.22;28.25;;;;;;;6.82;72.73;98592.88;5051875;28;20025;-74
2021/04/19 06:39:44;;;;;;;66.28;29.20;;;;;;;6.80;72.47;98595.06;5052413;28;20461;-74
2021/04/19 06:42:11;;;;;;;73.05;29.85;;;;;;;6.84;72.90;98589.91;5052338;28;20029;-74
2021/04/19 06:44:37;;;;;;;70.82;29.10;;;;;;;6.94;72.91;98602.72;5052225;28;20020;-74
2021/04/19 06:47:02;;;;;;;67.72;29.58;;;;;;;7.02;72.64;98602.22;5052311;28;20369;-74
2021/04/19 06:49:28;;;;;;;63.65;30.60;;;;;;;7.19;72.96;98606.59;5052299;28;20107;-75
2021/04/19 06:51:57;;;;;;;72.25;33.03;;;;;;;7.33;73.09;98602.25;5052189;28;20015;-74
2021/04/19 06:54:26;;;;;;;90.22;40.42;;;;;;;7.45;73.13;98616.47;5052164;28;20036;-74
2021/04/19 06:56:53;;;;;;;66.53;30.17;;;;;;;7.50;72.74;98626.56;5052041;28;20408;-74
2021/04/19 06:59:21;;;;;;;71.53;31.77;;;;;;;7.49;72.76;98635.84;5049548;28;20048;-74
2021/04/19 07:01:54;;;;;;;155.73;59.47;;;;;;;7.48;72.67;98639.66;5052198;28;20025;-74
2021/04/19 07:04:24;;;;;;;135.13;54.30;;;;;;;7.50;72.59;98639.41;5049897;28;20020;-74
2021/04/19 07:06:50;;;;;;;;;;;;;;;7.48;72.36;98650.56;5052425;28;20033;-74
2021/04/19 07:09:27;;;;;;;105.00;45.83;;;;;;;7.41;72.26;98652.75;5052901;28;19916;-75
2021/04/19 07:12:08;;;;;;;98.95;44.70;;;;;;;7.33;72.54;98648.63;5052585;28;20027;-74
2021/04/19 07:14:37;;;;;;;93.45;41.70;;;;;;;7.34;72.77;98644.00;5052248;28;20094;-74
2021/04/19 07:17:08;;;;;;;67.57;33.38;;;;;;;7.44;72.91;98635.81;5052196;28;20049;-76
2021/04/19 07:19:34;;;;;;;67.30;34.80;;;;;;;7.49;73.10;98637.75;5051484;28;20033;-76
2021/04/19 07:21:59;;;;;;;69.13;34.42;;;;;;;7.54;72.67;98641.31;5051496;28;20036;-76
2021/04/19 07:24:27;;;;;;;52.83;27.88;;;;;;;7.57;72.92;98632.56;5051548;28;20055;-75
2021/04/19 07:26:54;;;;;;;60.88;31.15;;;;;;;7.62;72.58;98639.94;5051033;28;20111;-76
2021/04/19 07:29:20;;;;;;;69.53;34.85;;;;;;;7.65;72.49;98639.38;5051495;28;20025;-77
2021/04/19 07:31:50;;;;;;;73.88;37.00;;;;;;;7.69;72.88;98635.03;5052121;28;20071;-76
2021/04/19 07:34:23;;;;;;;83.00;39.28;;;;;;;7.76;72.64;98645.66;5051388;28;20116;-76
2021/04/19 07:36:54;;;;;;;173.98;65.28;;;;;;;7.83;72.64;98645.41;5051354;28;20116;-76
2021/04/19 07:39:22;;;;;;;94.85;44.50;;;;;;;7.86;72.53;98647.59;5052046;28;20021;-76
2021/04/19 07:41:50;;;;;;;70.97;37.35;;;;;;;7.89;72.61;98633.41;5061200;28;20477;-75
2021/04/19 07:44:35;;;;;;;64.60;34.47;;;;;;;7.91;72.04;98633.94;5060937;28;20029;-74
2021/04/19 07:47:27;;;;;;;66.47;33.85;;;;;;;7.90;72.49;98624.13;5045242;28;20159;-75
2021/04/19 07:49:58;;;;;;;63.05;32.10;;;;;;;7.90;72.35;98627.66;5055748;28;20024;-74
2021/04/19 07:52:25;;;;;;;57.40;29.05;;;;;;;7.94;72.44;98622.47;5070197;28;20513;-74
2021/04/19 07:55:05;;;;;;;63.92;32.15;;;;;;;7.90;72.36;98624.13;5051097;28;20192;-74
2021/04/19 07:57:31;;;;;;;64.60;31.80;;;;;;;7.97;72.49;98629.28;5049577;28;20036;-74
2021/04/19 07:59:56;;;;;;;65.70;31.95;;;;;;;8.04;72.79;98618.91;5049945;28;20476;-74
2021/04/19 08:02:22;;;;;;;65.15;32.00;;;;;;;8.08;72.49;98617.25;5050995;28;20009;-75
2021/04/19 08:04:52;;;;;;;58.55;30.38;;;;;;;8.13;72.58;98619.16;5050671;28;20056;-74
2021/04/19 08:07:19;;;;;;;59.33;30.10;;;;;;;8.07;72.47;98622.97;5051833;28;20017;-75
2021/04/19 08:10:03;;;;;;;60.00;31.00;;;;;;;8.02;72.55;98616.44;5051784;28;20036;-75
2021/04/19 08:12:35;;;;;;;66.40;33.55;;;;;;;8.04;72.60;98624.38;5051887;28;20108;-76
2021/04/19 08:15:03;;;;;;;56.92;30.42;;;;;;;7.98;72.63;98618.06;5051167;28;20045;-76
2021/04/19 08:17:30;;;;;;;60.88;29.85;;;;;;;7.96;72.70;98628.44;5051380;28;20025;-76
2021/04/19 08:19:56;;;;;;;76.15;39.25;;;;;;;7.97;72.97;98621.91;5055152;28;20017;-75
2021/04/19 08:22:26;;;;;;;76.38;38.47;;;;;;;7.95;72.89;98626.81;5055072;28;20044;-75
2021/04/19 08:25:20;;;;;;;64.57;33.95;;;;;;;7.95;72.89;98621.34;5054943;28;20385;-75
2021/04/19 08:28:04;;;;;;;56.42;28.42;;;;;;;8.00;72.98;98615.09;5052995;28;20028;-76
2021/04/19 08:30:29;;;;;;;106.85;44.08;;;;;;;7.96;72.85;98597.59;5053586;28;20055;-76
2021/04/19 08:32:58;;;;;;;103.00;44.15;;;;;;;8.02;72.85;98589.13;5054643;28;20496;-74
2021/04/19 08:35:28;;;;;;;57.60;30.57;;;;;;;8.12;73.38;98582.84;5054317;28;20032;-75
2021/04/19 08:37:56;;;;;;;54.83;29.30;;;;;;;8.27;73.58;98581.13;5055011;28;20025;-76
2021/04/19 08:40:24;;;;;;;53.08;27.20;;;;;;;8.38;73.05;98562.78;5055518;28;20044;-75
2021/04/19 08:42:51;;;;;;;63.25;33.75;;;;;;;8.55;73.04;98573.44;5053932;28;20032;-74
2021/04/19 08:45:17;;;;;;;60.97;32.33;;;;;;;8.74;72.99;98579.88;5055098;28;20025;-74
2021/04/19 08:47:44;;;;;;;56.92;30.50;;;;;;;8.91;73.14;98565.84;5055125;28;20025;-74
2021/04/19 08:50:17;;;;;;;49.35;22.92;;;;;;;9.09;73.67;98556.16;5055235;28;20048;-76
2021/04/19 08:52:43;;;;;;;48.88;24.85;;;;;;;9.23;73.41;98566.47;5053841;28;20029;-75
2021/04/19 08:55:10;;;;;;;42.95;22.65;;;;;;;9.39;72.46;98567.97;5055002;28;20036;-74
2021/04/19 08:57:36;;;;;;;38.95;22.55;;;;;;;9.61;72.81;98566.72;5055007;28;20033;-76
2021/04/19 09:00:02;;;;;;;33.38;18.45;;;;;;;9.80;72.46;98575.03;5055009;28;20501;-74
2021/04/19 09:02:28;;;;;;;33.00;17.92;;;;;;;9.87;72.90;98577.44;5055071;28;20036;-75
2021/04/19 09:05:11;;;;;;;28.63;16.48;;;;;;;9.90;71.73;98584.28;5054861;28;20075;-77
2021/04/19 09:07:44;;;;;;;28.90;16.48;;;;;;;9.85;71.40;98579.63;5052826;28;20033;-75
2021/04/19 09:10:16;;;;;;;35.28;19.13;;;;;;;9.87;71.13;98585.66;5053108;28;20025;-76
2021/04/19 09:12:41;;;;;;;45.33;24.90;;;;;;;9.89;71.53;98579.91;5053044;28;20033;-76
2021/04/19 09:15:29;;;;;;;40.47;23.35;;;;;;;9.91;70.83;98578.50;5054189;28;20564;-77
2021/04/19 09:18:06;;;;;;;44.63;23.55;;;;;;;9.98;70.60;98567.22;5054408;28;20071;-77
2021/04/19 09:20:34;;;;;;;44.40;23.10;;;;;;;9.99;70.65;98571.56;5053111;28;20059;-76
2021/04/19 09:23:23;;;;;;;41.03;22.23;;;;;;;9.88;69.79;98572.78;5054389;28;20029;-75
2021/04/19 09:25:49;;;;;;;45.88;24.75;;;;;;;9.78;70.16;98574.50;5054459;28;20104;-76
2021/04/19 09:28:41;;;;;;;36.17;19.52;;;;;;;9.93;71.02;98570.00;5054273;28;20029;-76
2021/04/19 09:31:09;;;;;;;34.53;19.45;;;;;;;10.05;70.73;98562.19;5054279;28;20036;-76
2021/04/19 09:33:36;;;;;;;37.17;22.23;;;;;;;10.10;71.12;98564.88;5054474;28;20028;-75
2021/04/19 09:36:01;;;;;;;30.45;17.85;;;;;;;10.24;71.02;98564.19;5054134;28;20489;-74
2021/04/19 09:38:39;;;;;;;31.58;17.08;;;;;;;10.25;69.91;98566.63;5054256;28;20108;-74
2021/04/19 09:41:12;;;;;;;30.38;17.35;;;;;;;10.29;69.91;98555.91;5054043;28;20029;-75
2021/04/19 09:43:39;;;;;;;31.42;16.92;;;;;;;10.37;70.23;98557.19;5053702;28;20028;-74
2021/04/19 09:46:05;;;;;;;35.08;18.92;;;;;;;10.44;69.98;98549.44;5052453;28;20084;-74
2021/04/19 09:48:31;;;;;;;33.47;18.70;;;;;;;10.47;69.57;98546.13;5051946;28;20028;-75
2021/04/19 09:51:00;;;;;;;34.85;19.13;;;;;;;10.41;69.28;98541.81;5052731;28;20029;-74
2021/04/19 09:53:27;;;;;;;41.63;22.38;;;;;;;10.47;69.72;98550.78;5052177;28;20033;-74
2021/04/19 09:55:52;;;;;;;43.15;22.88;;;;;;;10.50;69.86;98551.03;5053481;28;20064;-74
2021/04/19 09:58:19;;;;;;;41.03;20.65;;;;;;;10.61;69.43;98551.69;5052499;28;20105;-74
2021/04/19 10:00:52;;;;;;;33.83;18.70;;;;;;;10.65;69.07;98555.50;5053878;28;20545;-74
2021/04/19 10:03:18;;;;;;;39.00;21.65;;;;;;;10.59;69.13;98559.41;5053994;28;20029;-74
2021/04/19 10:05:44;;;;;;;40.58;21.80;;;;;;;10.66;69.66;98551.63;5052625;28;20392;-74
2021/04/19 10:08:12;;;;;;;42.53;22.83;;;;;;;10.68;68.67;98552.16;5053805;28;20029;-74
2021/04/19 10:10:40;;;;;;;63.70;30.17;;;;;;;10.59;68.06;98553.13;5053967;28;20017;-74
2021/04/19 10:13:06;;;;;;;48.20;23.77;;;;;;;10.53;68.22;98553.19;5053644;28;20520;-74
2021/04/19 10:15:31;;;;;;;43.03;21.63;;;;;;;10.51;68.54;98552.66;5053319;28;20084;-75
2021/04/19 10:17:59;;;;;;;31.15;17.10;;;;;;;10.42;67.71;98557.16;5053628;28;20029;-76
2021/04/19 10:20:27;;;;;;;33.42;18.00;;;;;;;10.33;67.87;98548.72;5053649;28;20025;-75
2021/04/19 10:23:12;;;;;;;116.18;43.58;;;;;;;10.31;68.38;98550.94;5052637;28;20028;-75
2021/04/19 10:25:49;;;;;;;112.10;39.70;;;;;;;10.36;68.92;98550.91;5051134;28;20067;-75
2021/04/19 10:28:32;;;;;;;36.58;19.85;;;;;;;10.40;68.08;98551.94;5050785;28;20021;-74
2021/04/19 10:31:14;;;;;;;50.22;24.45;;;;;;;10.37;68.15;98547.03;5051071;28;20021;-74
2021/04/19 10:33:43;;;;;;;46.22;24.60;;;;;;;10.33;67.88;98537.75;5052990;28;20416;-74
2021/04/19 10:36:19;;;;;;;76.00;33.65;;;;;;;10.35;68.22;98546.53;5053096;28;20028;-73
2021/04/19 10:38:47;;;;;;;40.83;21.20;;;;;;;10.33;68.02;98543.25;5052919;28;20021;-74
2021/04/19 10:41:13;;;;;;;40.45;20.98;;;;;;;10.26;68.05;98546.31;5052397;28;20033;-74
2021/04/19 10:43:40;;;;;;;45.33;23.17;;;;;;;10.20;68.15;98552.97;5052726;28;20366;-74
2021/04/19 10:46:23;;;;;;;51.50;25.92;;;;;;;10.09;68.20;98544.06;5052872;28;20025;-75
2021/04/19 10:48:49;;;;;;;39.20;20.65;;;;;;;10.04;68.13;98548.78;5052570;28;20021;-75
2021/04/19 10:51:20;;;;;;;42.90;24.05;;;;;;;9.98;68.54;98542.56;5052148;28;20033;-74
2021/04/19 10:53:46;;;;;;;37.72;20.27;;;;;;;9.92;68.30;98551.94;5052061;28;20053;-74
2021/04/19 10:56:14;;;;;;;37.45;20.98;;;;;;;9.86;69.07;98551.13;5051293;28;20050;-75
2021/04/19 10:58:40;;;;;;;42.05;22.83;;;;;;;9.76;68.42;98546.59;5052201;28;20485;-75
2021/04/19 11:01:06;;;;;;;37.83;22.45;;;;;;;9.74;68.92;98543.31;5051194;28;20025;-75
2021/04/19 11:03:36;;;;;;;38.28;21.25;;;;;;;9.71;68.92;98545.84;5052661;28;20036;-75
2021/04/19 11:06:06;;;;;;;40.65;22.40;;;;;;;9.58;68.56;98548.13;5052543;28;20120;-75
2021/04/19 11:09:08;;;;;;;45.92;23.67;;;;;;;9.46;69.71;98550.41;5052754;28;20033;-75
2021/04/19 11:11:37;;;;;;;55.47;30.23;;;;;;;9.43;68.96;98545.50;5047208;28;20179;-75
2021/04/19 11:14:15;;;;;;;82.00;43.40;;;;;;;9.37;69.63;98544.75;5048033;28;20051;-75
2021/04/19 11:16:57;;;;;;;72.43;38.30;;;;;;;9.37;69.75;98544.75;5052959;28;20052;-75
2021/04/19 11:19:40;;;;;;;43.78;22.70;;;;;;;9.31;70.15;98540.41;5053013;28;20025;-75
2021/04/19 11:22:28;;;;;;;46.50;26.02;;;;;;;9.20;70.91;98542.41;5052616;28;20031;-74
2021/04/19 11:25:09;;;;;;;40.97;22.40;;;;;;;9.11;70.72;98538.63;5052572;28;20098;-75
2021/04/19 11:27:34;;;;;;;38.10;20.95;;;;;;;9.08;70.36;98542.78;5052501;28;20436;-75
2021/04/19 11:30:00;;;;;;;43.28;23.02;;;;;;;9.01;70.48;98540.34;5052349;28;20040;-74
2021/04/19 11:32:31;;;;;;;41.53;21.80;;;;;;;8.95;71.41;98544.22;5052447;28;20028;-74
2021/04/19 11:34:57;;;;;;;44.65;25.20;;;;;;;8.94;71.10;98548.06;5052526;28;20036;-75